CMA weather

Camarillo Airport
Camarillo, California, United States

Public forecast

Using degrees Fahrenheit for public forecast. Weather courtesy of forecast.io.

Current aviation weather report (METAR) for Camarillo Airport

Retrieved 2019/11/16 21:55 UTC (45 minutes ago):

KCMA 162155Z 27009KT 10SM CLR 30/04 A2992 RMK AO2 SLP138 T03000039

Aviation forecast (TAF) for Camarillo Airport

Retrieved 2019/11/16 18:22 UTC (4 hours ago):

TAF KCMA 161722Z 1618/1718 08006KT P6SM SKC FM162000 23008KT P6SM SKC FM170200 VRB03KT P6SM SKC FM171000 07008KT P6SM SKC FM171500 07018G28KT P6SM SKC